sensor_id;sensor_type;location;lat;lon;timestamp;pressure;altitude;pressure_sealevel;temperature
70969;BMP280;58630;43.022;25.100;2023-05-21T00:00:58;;;;21.00
70969;BMP280;58630;43.022;25.100;2023-05-21T00:03:25;;;;21.00
70969;BMP280;58630;43.022;25.100;2023-05-21T00:05:52;;;;21.00
70969;BMP280;58630;43.022;25.100;2023-05-21T00:08:19;;;;21.00
70969;BMP280;58630;43.022;25.100;2023-05-21T00:10:44;;;;21.00
70969;BMP280;58630;43.022;25.100;2023-05-21T00:13:10;;;;20.90
70969;BMP280;58630;43.022;25.100;2023-05-21T00:15:35;;;;20.90
70969;BMP280;58630;43.022;25.100;2023-05-21T00:18:01;;;;20.90
70969;BMP280;58630;43.022;25.100;2023-05-21T00:20:27;;;;20.90
70969;BMP280;58630;43.022;25.100;2023-05-21T00:22:56;;;;20.90
70969;BMP280;58630;43.022;25.100;2023-05-21T00:25:22;;;;20.90
70969;BMP280;58630;43.022;25.100;2023-05-21T00:27:48;;;;20.90
70969;BMP280;58630;43.022;25.100;2023-05-21T00:30:13;;;;20.90
70969;BMP280;58630;43.022;25.100;2023-05-21T00:32:40;;;;20.90
70969;BMP280;58630;43.022;25.100;2023-05-21T00:35:06;;;;20.80
70969;BMP280;58630;43.022;25.100;2023-05-21T00:37:31;;;;20.80
70969;BMP280;58630;43.022;25.100;2023-05-21T00:40:01;;;;20.80
70969;BMP280;58630;43.022;25.100;2023-05-21T00:42:29;;;;20.80
70969;BMP280;58630;43.022;25.100;2023-05-21T00:44:55;;;;20.80
70969;BMP280;58630;43.022;25.100;2023-05-21T00:47:21;;;;20.80
70969;BMP280;58630;43.022;25.100;2023-05-21T00:49:47;;;;20.80
70969;BMP280;58630;43.022;25.100;2023-05-21T00:52:13;;;;20.70
70969;BMP280;58630;43.022;25.100;2023-05-21T00:54:39;;;;20.70
70969;BMP280;58630;43.022;25.100;2023-05-21T00:57:05;;;;20.70
70969;BMP280;58630;43.022;25.100;2023-05-21T00:59:31;;;;20.70
70969;BMP280;58630;43.022;25.100;2023-05-21T01:01:57;;;;20.70
70969;BMP280;58630;43.022;25.100;2023-05-21T01:04:28;;;;20.70
70969;BMP280;58630;43.022;25.100;2023-05-21T01:06:54;;;;20.70
70969;BMP280;58630;43.022;25.100;2023-05-21T01:09:20;;;;20.70
70969;BMP280;58630;43.022;25.100;2023-05-21T01:11:46;;;;20.60
70969;BMP280;58630;43.022;25.100;2023-05-21T01:14:13;;;;20.60
70969;BMP280;58630;43.022;25.100;2023-05-21T01:16:40;;;;20.60
70969;BMP280;58630;43.022;25.100;2023-05-21T01:19:06;;;;20.60
70969;BMP280;58630;43.022;25.100;2023-05-21T01:21:35;;;;20.60
70969;BMP280;58630;43.022;25.100;2023-05-21T01:24:02;;;;20.60
70969;BMP280;58630;43.022;25.100;2023-05-21T01:26:30;;;;20.60
70969;BMP280;58630;43.022;25.100;2023-05-21T01:28:57;;;;20.60
70969;BMP280;58630;43.022;25.100;2023-05-21T01:31:27;;;;20.50
70969;BMP280;58630;43.022;25.100;2023-05-21T01:33:55;;;;20.50
70969;BMP280;58630;43.022;25.100;2023-05-21T01:36:24;;;;20.50
70969;BMP280;58630;43.022;25.100;2023-05-21T01:38:55;;;;20.50
70969;BMP280;58630;43.022;25.100;2023-05-21T01:41:21;;;;20.50
70969;BMP280;58630;43.022;25.100;2023-05-21T01:43:48;;;;20.50
70969;BMP280;58630;43.022;25.100;2023-05-21T01:46:16;;;;20.50
70969;BMP280;58630;43.022;25.100;2023-05-21T01:48:41;;;;20.40
70969;BMP280;58630;43.022;25.100;2023-05-21T01:51:08;;;;20.40
70969;BMP280;58630;43.022;25.100;2023-05-21T01:53:33;;;;20.40
70969;BMP280;58630;43.022;25.100;2023-05-21T01:55:59;;;;20.40
70969;BMP280;58630;43.022;25.100;2023-05-21T01:58:25;;;;20.40
70969;BMP280;58630;43.022;25.100;2023-05-21T02:00:50;;;;20.40
70969;BMP280;58630;43.022;25.100;2023-05-21T02:03:16;;;;20.40
70969;BMP280;58630;43.022;25.100;2023-05-21T02:05:42;;;;20.40
70969;BMP280;58630;43.022;25.100;2023-05-21T02:08:08;;;;20.40
70969;BMP280;58630;43.022;25.100;2023-05-21T02:10:34;;;;20.30
70969;BMP280;58630;43.022;25.100;2023-05-21T02:12:59;;;;20.30
70969;BMP280;58630;43.022;25.100;2023-05-21T02:15:25;;;;20.30
70969;BMP280;58630;43.022;25.100;2023-05-21T02:17:51;;;;20.30
70969;BMP280;58630;43.022;25.100;2023-05-21T02:20:17;;;;20.30
70969;BMP280;58630;43.022;25.100;2023-05-21T02:22:43;;;;20.20
70969;BMP280;58630;43.022;25.100;2023-05-21T02:25:10;;;;20.20
70969;BMP280;58630;43.022;25.100;2023-05-21T02:27:35;;;;20.30
70969;BMP280;58630;43.022;25.100;2023-05-21T02:30:06;;;;20.20
70969;BMP280;58630;43.022;25.100;2023-05-21T02:32:32;;;;20.20
70969;BMP280;58630;43.022;25.100;2023-05-21T02:34:59;;;;20.20
70969;BMP280;58630;43.022;25.100;2023-05-21T02:37:25;;;;20.20
70969;BMP280;58630;43.022;25.100;2023-05-21T02:39:54;;;;20.20
70969;BMP280;58630;43.022;25.100;2023-05-21T02:42:21;;;;20.20
70969;BMP280;58630;43.022;25.100;2023-05-21T02:44:46;;;;20.10
70969;BMP280;58630;43.022;25.100;2023-05-21T02:47:12;;;;20.10
70969;BMP280;58630;43.022;25.100;2023-05-21T02:49:37;;;;20.10
70969;BMP280;58630;43.022;25.100;2023-05-21T02:52:03;;;;20.10
70969;BMP280;58630;43.022;25.100;2023-05-21T02:54:29;;;;20.10
70969;BMP280;58630;43.022;25.100;2023-05-21T02:56:54;;;;20.10
70969;BMP280;58630;43.022;25.100;2023-05-21T02:59:20;;;;20.10
70969;BMP280;58630;43.022;25.100;2023-05-21T03:01:45;;;;20.10
70969;BMP280;58630;43.022;25.100;2023-05-21T03:04:11;;;;20.00
70969;BMP280;58630;43.022;25.100;2023-05-21T03:06:36;;;;20.00
70969;BMP280;58630;43.022;25.100;2023-05-21T03:09:02;;;;20.00
70969;BMP280;58630;43.022;25.100;2023-05-21T03:11:28;;;;20.00
70969;BMP280;58630;43.022;25.100;2023-05-21T03:13:53;;;;20.00
70969;BMP280;58630;43.022;25.100;2023-05-21T03:16:19;;;;20.00
70969;BMP280;58630;43.022;25.100;2023-05-21T03:18:44;;;;20.00
70969;BMP280;58630;43.022;25.100;2023-05-21T03:21:10;;;;20.00
70969;BMP280;58630;43.022;25.100;2023-05-21T03:23:37;;;;20.00
70969;BMP280;58630;43.022;25.100;2023-05-21T03:26:03;;;;19.90
70969;BMP280;58630;43.022;25.100;2023-05-21T03:28:29;;;;19.90
70969;BMP280;58630;43.022;25.100;2023-05-21T03:30:55;;;;19.90
70969;BMP280;58630;43.022;25.100;2023-05-21T03:33:20;;;;19.90
70969;BMP280;58630;43.022;25.100;2023-05-21T03:35:46;;;;19.90
70969;BMP280;58630;43.022;25.100;2023-05-21T03:38:11;;;;19.90
70969;BMP280;58630;43.022;25.100;2023-05-21T03:40:37;;;;19.90
70969;BMP280;58630;43.022;25.100;2023-05-21T03:43:02;;;;19.90
70969;BMP280;58630;43.022;25.100;2023-05-21T03:45:28;;;;19.90
70969;BMP280;58630;43.022;25.100;2023-05-21T03:47:54;;;;19.90
70969;BMP280;58630;43.022;25.100;2023-05-21T03:50:19;;;;19.90
70969;BMP280;58630;43.022;25.100;2023-05-21T03:52:45;;;;19.80
70969;BMP280;58630;43.022;25.100;2023-05-21T03:55:10;;;;19.80
70969;BMP280;58630;43.022;25.100;2023-05-21T03:57:36;;;;19.80
70969;BMP280;58630;43.022;25.100;2023-05-21T04:00:02;;;;19.80
70969;BMP280;58630;43.022;25.100;2023-05-21T04:02:29;;;;19.80
70969;BMP280;58630;43.022;25.100;2023-05-21T04:04:54;;;;19.80
70969;BMP280;58630;43.022;25.100;2023-05-21T04:07:20;;;;19.80
70969;BMP280;58630;43.022;25.100;2023-05-21T04:09:46;;;;19.80
70969;BMP280;58630;43.022;25.100;2023-05-21T04:12:12;;;;19.80
70969;BMP280;58630;43.022;25.100;2023-05-21T04:14:37;;;;19.80
70969;BMP280;58630;43.022;25.100;2023-05-21T04:17:03;;;;19.70
70969;BMP280;58630;43.022;25.100;2023-05-21T04:21:55;;;;19.70
70969;BMP280;58630;43.022;25.100;2023-05-21T04:24:22;;;;19.70
70969;BMP280;58630;43.022;25.100;2023-05-21T04:26:48;;;;19.70
70969;BMP280;58630;43.022;25.100;2023-05-21T04:29:14;;;;19.70
70969;BMP280;58630;43.022;25.100;2023-05-21T04:31:42;;;;19.70
70969;BMP280;58630;43.022;25.100;2023-05-21T04:34:08;;;;19.70
70969;BMP280;58630;43.022;25.100;2023-05-21T04:36:33;;;;19.70
70969;BMP280;58630;43.022;25.100;2023-05-21T04:38:59;;;;19.70
70969;BMP280;58630;43.022;25.100;2023-05-21T04:41:25;;;;19.70
70969;BMP280;58630;43.022;25.100;2023-05-21T04:43:50;;;;19.70
70969;BMP280;58630;43.022;25.100;2023-05-21T04:46:20;;;;19.70
70969;BMP280;58630;43.022;25.100;2023-05-21T04:48:52;;;;19.70
70969;BMP280;58630;43.022;25.100;2023-05-21T04:51:20;;;;19.70
70969;BMP280;58630;43.022;25.100;2023-05-21T04:53:46;;;;19.70
70969;BMP280;58630;43.022;25.100;2023-05-21T04:56:12;;;;19.70
70969;BMP280;58630;43.022;25.100;2023-05-21T04:58:38;;;;19.70
70969;BMP280;58630;43.022;25.100;2023-05-21T05:01:04;;;;19.70
70969;BMP280;58630;43.022;25.100;2023-05-21T05:03:30;;;;19.80
70969;BMP280;58630;43.022;25.100;2023-05-21T05:05:55;;;;19.70
70969;BMP280;58630;43.022;25.100;2023-05-21T05:08:21;;;;19.80
70969;BMP280;58630;43.022;25.100;2023-05-21T05:10:47;;;;19.80
70969;BMP280;58630;43.022;25.100;2023-05-21T05:13:12;;;;19.80
70969;BMP280;58630;43.022;25.100;2023-05-21T05:15:38;;;;19.80
70969;BMP280;58630;43.022;25.100;2023-05-21T05:18:03;;;;19.80
70969;BMP280;58630;43.022;25.100;2023-05-21T05:20:29;;;;19.80
70969;BMP280;58630;43.022;25.100;2023-05-21T05:22:54;;;;19.80
70969;BMP280;58630;43.022;25.100;2023-05-21T05:25:20;;;;19.80
70969;BMP280;58630;43.022;25.100;2023-05-21T05:27:46;;;;19.80
70969;BMP280;58630;43.022;25.100;2023-05-21T05:30:11;;;;19.80
70969;BMP280;58630;43.022;25.100;2023-05-21T05:32:37;;;;19.80
70969;BMP280;58630;43.022;25.100;2023-05-21T05:35:02;;;;19.80
70969;BMP280;58630;43.022;25.100;2023-05-21T05:37:28;;;;19.80
70969;BMP280;58630;43.022;25.100;2023-05-21T05:39:53;;;;19.80
70969;BMP280;58630;43.022;25.100;2023-05-21T05:42:19;;;;19.80
70969;BMP280;58630;43.022;25.100;2023-05-21T05:44:44;;;;19.80
70969;BMP280;58630;43.022;25.100;2023-05-21T05:47:10;;;;19.80
70969;BMP280;58630;43.022;25.100;2023-05-21T05:49:36;;;;19.80
70969;BMP280;58630;43.022;25.100;2023-05-21T05:52:01;;;;19.80
70969;BMP280;58630;43.022;25.100;2023-05-21T05:54:27;;;;19.80
70969;BMP280;58630;43.022;25.100;2023-05-21T05:56:52;;;;19.80
70969;BMP280;58630;43.022;25.100;2023-05-21T05:59:18;;;;19.80
70969;BMP280;58630;43.022;25.100;2023-05-21T06:01:43;;;;19.80
70969;BMP280;58630;43.022;25.100;2023-05-21T06:04:09;;;;19.80
70969;BMP280;58630;43.022;25.100;2023-05-21T06:06:34;;;;19.80
70969;BMP280;58630;43.022;25.100;2023-05-21T06:09:01;;;;19.90
70969;BMP280;58630;43.022;25.100;2023-05-21T06:11:26;;;;19.80
70969;BMP280;58630;43.022;25.100;2023-05-21T06:13:52;;;;19.80
70969;BMP280;58630;43.022;25.100;2023-05-21T06:16:17;;;;19.80
70969;BMP280;58630;43.022;25.100;2023-05-21T06:18:43;;;;19.90
70969;BMP280;58630;43.022;25.100;2023-05-21T06:21:08;;;;19.90
70969;BMP280;58630;43.022;25.100;2023-05-21T06:23:34;;;;19.90
70969;BMP280;58630;43.022;25.100;2023-05-21T06:26:02;;;;19.80
70969;BMP280;58630;43.022;25.100;2023-05-21T06:28:27;;;;19.90
70969;BMP280;58630;43.022;25.100;2023-05-21T06:30:53;;;;19.90
70969;BMP280;58630;43.022;25.100;2023-05-21T06:33:19;;;;19.90
70969;BMP280;58630;43.022;25.100;2023-05-21T06:35:44;;;;19.90
70969;BMP280;58630;43.022;25.100;2023-05-21T06:38:10;;;;19.90
70969;BMP280;58630;43.022;25.100;2023-05-21T06:40:35;;;;19.90
70969;BMP280;58630;43.022;25.100;2023-05-21T06:43:01;;;;19.90
70969;BMP280;58630;43.022;25.100;2023-05-21T06:45:29;;;;19.90
70969;BMP280;58630;43.022;25.100;2023-05-21T06:47:54;;;;19.90
70969;BMP280;58630;43.022;25.100;2023-05-21T06:50:20;;;;19.90
70969;BMP280;58630;43.022;25.100;2023-05-21T06:52:45;;;;19.90
70969;BMP280;58630;43.022;25.100;2023-05-21T06:55:11;;;;19.90
70969;BMP280;58630;43.022;25.100;2023-05-21T06:57:37;;;;19.90
70969;BMP280;58630;43.022;25.100;2023-05-21T07:00:03;;;;20.00
70969;BMP280;58630;43.022;25.100;2023-05-21T07:02:29;;;;20.00
70969;BMP280;58630;43.022;25.100;2023-05-21T07:04:54;;;;20.00
70969;BMP280;58630;43.022;25.100;2023-05-21T07:07:21;;;;20.00
70969;BMP280;58630;43.022;25.100;2023-05-21T07:09:46;;;;20.00
70969;BMP280;58630;43.022;25.100;2023-05-21T07:12:12;;;;20.00
70969;BMP280;58630;43.022;25.100;2023-05-21T07:14:37;;;;20.00
70969;BMP280;58630;43.022;25.100;2023-05-21T07:17:03;;;;20.00
70969;BMP280;58630;43.022;25.100;2023-05-21T07:19:28;;;;20.10
70969;BMP280;58630;43.022;25.100;2023-05-21T07:21:54;;;;20.10
70969;BMP280;58630;43.022;25.100;2023-05-21T07:24:20;;;;20.10
70969;BMP280;58630;43.022;25.100;2023-05-21T07:26:46;;;;20.10
70969;BMP280;58630;43.022;25.100;2023-05-21T07:29:12;;;;20.10
70969;BMP280;58630;43.022;25.100;2023-05-21T07:31:37;;;;20.10
70969;BMP280;58630;43.022;25.100;2023-05-21T07:34:03;;;;20.10
70969;BMP280;58630;43.022;25.100;2023-05-21T07:36:28;;;;20.10
70969;BMP280;58630;43.022;25.100;2023-05-21T07:38:55;;;;20.10
70969;BMP280;58630;43.022;25.100;2023-05-21T07:41:20;;;;20.20
70969;BMP280;58630;43.022;25.100;2023-05-21T07:43:46;;;;20.20
70969;BMP280;58630;43.022;25.100;2023-05-21T07:46:12;;;;20.20
70969;BMP280;58630;43.022;25.100;2023-05-21T07:48:38;;;;20.20
70969;BMP280;58630;43.022;25.100;2023-05-21T07:51:03;;;;20.20
70969;BMP280;58630;43.022;25.100;2023-05-21T07:53:29;;;;20.20
70969;BMP280;58630;43.022;25.100;2023-05-21T07:55:57;;;;20.20
70969;BMP280;58630;43.022;25.100;2023-05-21T07:58:22;;;;20.30
70969;BMP280;58630;43.022;25.100;2023-05-21T08:00:48;;;;20.20
70969;BMP280;58630;43.022;25.100;2023-05-21T08:03:15;;;;20.30
70969;BMP280;58630;43.022;25.100;2023-05-21T08:05:44;;;;20.30
70969;BMP280;58630;43.022;25.100;2023-05-21T08:08:13;;;;20.20
70969;BMP280;58630;43.022;25.100;2023-05-21T08:10:39;;;;20.30
70969;BMP280;58630;43.022;25.100;2023-05-21T08:13:04;;;;20.30
70969;BMP280;58630;43.022;25.100;2023-05-21T08:15:30;;;;20.30
70969;BMP280;58630;43.022;25.100;2023-05-21T08:17:55;;;;20.30
70969;BMP280;58630;43.022;25.100;2023-05-21T08:20:21;;;;20.30
70969;BMP280;58630;43.022;25.100;2023-05-21T08:22:46;;;;20.30
70969;BMP280;58630;43.022;25.100;2023-05-21T08:25:12;;;;20.30
70969;BMP280;58630;43.022;25.100;2023-05-21T08:27:38;;;;20.30
70969;BMP280;58630;43.022;25.100;2023-05-21T08:30:03;;;;20.30
70969;BMP280;58630;43.022;25.100;2023-05-21T08:32:29;;;;20.30
70969;BMP280;58630;43.022;25.100;2023-05-21T08:34:55;;;;20.30
70969;BMP280;58630;43.022;25.100;2023-05-21T08:37:21;;;;20.30
70969;BMP280;58630;43.022;25.100;2023-05-21T08:39:47;;;;20.40
70969;BMP280;58630;43.022;25.100;2023-05-21T08:42:25;;;;20.40
70969;BMP280;58630;43.022;25.100;2023-05-21T08:44:54;;;;20.40
70969;BMP280;58630;43.022;25.100;2023-05-21T08:47:23;;;;20.40
70969;BMP280;58630;43.022;25.100;2023-05-21T08:49:50;;;;20.40
70969;BMP280;58630;43.022;25.100;2023-05-21T08:52:16;;;;20.40
70969;BMP280;58630;43.022;25.100;2023-05-21T08:54:42;;;;20.40
70969;BMP280;58630;43.022;25.100;2023-05-21T08:57:08;;;;20.40
70969;BMP280;58630;43.022;25.100;2023-05-21T08:59:34;;;;20.50
70969;BMP280;58630;43.022;25.100;2023-05-21T09:02:02;;;;20.50
70969;BMP280;58630;43.022;25.100;2023-05-21T09:04:28;;;;20.50
70969;BMP280;58630;43.022;25.100;2023-05-21T09:06:55;;;;20.50
70969;BMP280;58630;43.022;25.100;2023-05-21T09:09:31;;;;20.50
70969;BMP280;58630;43.022;25.100;2023-05-21T09:11:57;;;;20.50
70969;BMP280;58630;43.022;25.100;2023-05-21T09:14:22;;;;20.50
70969;BMP280;58630;43.022;25.100;2023-05-21T09:16:48;;;;20.60
70969;BMP280;58630;43.022;25.100;2023-05-21T09:19:14;;;;20.60
70969;BMP280;58630;43.022;25.100;2023-05-21T09:21:39;;;;20.60
70969;BMP280;58630;43.022;25.100;2023-05-21T09:24:05;;;;20.60
70969;BMP280;58630;43.022;25.100;2023-05-21T09:26:33;;;;20.60
70969;BMP280;58630;43.022;25.100;2023-05-21T09:28:59;;;;20.70
70969;BMP280;58630;43.022;25.100;2023-05-21T09:31:25;;;;20.70
70969;BMP280;58630;43.022;25.100;2023-05-21T09:33:51;;;;20.70
70969;BMP280;58630;43.022;25.100;2023-05-21T09:36:20;;;;20.80
70969;BMP280;58630;43.022;25.100;2023-05-21T09:38:49;;;;20.80
70969;BMP280;58630;43.022;25.100;2023-05-21T09:41:16;;;;20.80
70969;BMP280;58630;43.022;25.100;2023-05-21T09:43:42;;;;20.80
70969;BMP280;58630;43.022;25.100;2023-05-21T09:46:10;;;;20.80
70969;BMP280;58630;43.022;25.100;2023-05-21T09:48:37;;;;20.80
70969;BMP280;58630;43.022;25.100;2023-05-21T09:51:21;;;;20.90
70969;BMP280;58630;43.022;25.100;2023-05-21T09:53:54;;;;20.90
70969;BMP280;58630;43.022;25.100;2023-05-21T09:56:30;;;;20.90
70969;BMP280;58630;43.022;25.100;2023-05-21T09:58:58;;;;20.90
70969;BMP280;58630;43.022;25.100;2023-05-21T10:01:25;;;;20.90
70969;BMP280;58630;43.022;25.100;2023-05-21T10:03:55;;;;20.90
70969;BMP280;58630;43.022;25.100;2023-05-21T10:06:22;;;;21.00
70969;BMP280;58630;43.022;25.100;2023-05-21T10:08:49;;;;21.00
70969;BMP280;58630;43.022;25.100;2023-05-21T10:11:16;;;;21.10
70969;BMP280;58630;43.022;25.100;2023-05-21T10:13:44;;;;21.10
70969;BMP280;58630;43.022;25.100;2023-05-21T10:16:09;;;;21.10
70969;BMP280;58630;43.022;25.100;2023-05-21T10:18:35;;;;21.10
70969;BMP280;58630;43.022;25.100;2023-05-21T10:21:02;;;;21.20
70969;BMP280;58630;43.022;25.100;2023-05-21T10:23:27;;;;21.20
70969;BMP280;58630;43.022;25.100;2023-05-21T10:25:53;;;;21.20
70969;BMP280;58630;43.022;25.100;2023-05-21T10:28:19;;;;21.20
70969;BMP280;58630;43.022;25.100;2023-05-21T10:30:46;;;;21.30
70969;BMP280;58630;43.022;25.100;2023-05-21T10:33:14;;;;21.30
70969;BMP280;58630;43.022;25.100;2023-05-21T10:35:40;;;;21.30
70969;BMP280;58630;43.022;25.100;2023-05-21T10:38:07;;;;21.30
70969;BMP280;58630;43.022;25.100;2023-05-21T10:40:33;;;;21.30
70969;BMP280;58630;43.022;25.100;2023-05-21T10:45:28;;;;21.40
70969;BMP280;58630;43.022;25.100;2023-05-21T10:55:41;;;;21.60
70969;BMP280;58630;43.022;25.100;2023-05-21T11:00:52;;;;21.60
70969;BMP280;58630;43.022;25.100;2023-05-21T11:03:18;;;;21.70
70969;BMP280;58630;43.022;25.100;2023-05-21T11:05:53;;;;21.70
70969;BMP280;58630;43.022;25.100;2023-05-21T11:08:20;;;;21.80
70969;BMP280;58630;43.022;25.100;2023-05-21T11:10:56;;;;21.80
70969;BMP280;58630;43.022;25.100;2023-05-21T11:13:25;;;;21.80
70969;BMP280;58630;43.022;25.100;2023-05-21T11:26:18;;;;22.10
70969;BMP280;58630;43.022;25.100;2023-05-21T11:28:44;;;;22.10
70969;BMP280;58630;43.022;25.100;2023-05-21T11:31:22;;;;22.10
70969;BMP280;58630;43.022;25.100;2023-05-21T11:34:07;;;;22.20
70969;BMP280;58630;43.022;25.100;2023-05-21T11:36:32;;;;22.20
70969;BMP280;58630;43.022;25.100;2023-05-21T11:39:14;;;;22.20
70969;BMP280;58630;43.022;25.100;2023-05-21T11:41:50;;;;22.30
70969;BMP280;58630;43.022;25.100;2023-05-21T11:44:16;;;;22.30
70969;BMP280;58630;43.022;25.100;2023-05-21T11:46:42;;;;22.40
70969;BMP280;58630;43.022;25.100;2023-05-21T11:49:08;;;;22.60
70969;BMP280;58630;43.022;25.100;2023-05-21T11:51:34;;;;22.70
70969;BMP280;58630;43.022;25.100;2023-05-21T11:54:00;;;;22.80
70969;BMP280;58630;43.022;25.100;2023-05-21T11:56:25;;;;22.90
70969;BMP280;58630;43.022;25.100;2023-05-21T11:58:52;;;;23.00
70969;BMP280;58630;43.022;25.100;2023-05-21T12:01:20;;;;23.10
70969;BMP280;58630;43.022;25.100;2023-05-21T12:03:46;;;;23.30
70969;BMP280;58630;43.022;25.100;2023-05-21T12:06:12;;;;23.40
70969;BMP280;58630;43.022;25.100;2023-05-21T12:08:38;;;;23.50
70969;BMP280;58630;43.022;25.100;2023-05-21T12:11:03;;;;23.70
70969;BMP280;58630;43.022;25.100;2023-05-21T12:13:29;;;;23.80
70969;BMP280;58630;43.022;25.100;2023-05-21T12:15:54;;;;24.00
70969;BMP280;58630;43.022;25.100;2023-05-21T12:18:20;;;;24.10
70969;BMP280;58630;43.022;25.100;2023-05-21T12:20:46;;;;24.40
70969;BMP280;58630;43.022;25.100;2023-05-21T12:26:03;;;;24.70
70969;BMP280;58630;43.022;25.100;2023-05-21T12:28:29;;;;24.90
70969;BMP280;58630;43.022;25.100;2023-05-21T12:30:56;;;;25.10
70969;BMP280;58630;43.022;25.100;2023-05-21T12:33:21;;;;25.20
70969;BMP280;58630;43.022;25.100;2023-05-21T12:35:50;;;;25.40
70969;BMP280;58630;43.022;25.100;2023-05-21T12:38:16;;;;25.50
70969;BMP280;58630;43.022;25.100;2023-05-21T12:40:42;;;;25.70
70969;BMP280;58630;43.022;25.100;2023-05-21T12:43:09;;;;25.90
70969;BMP280;58630;43.022;25.100;2023-05-21T12:45:35;;;;26.00
70969;BMP280;58630;43.022;25.100;2023-05-21T12:48:03;;;;26.10
70969;BMP280;58630;43.022;25.100;2023-05-21T12:50:29;;;;26.20
70969;BMP280;58630;43.022;25.100;2023-05-21T12:52:55;;;;26.20
70969;BMP280;58630;43.022;25.100;2023-05-21T12:55:22;;;;26.10
70969;BMP280;58630;43.022;25.100;2023-05-21T12:57:48;;;;26.10
70969;BMP280;58630;43.022;25.100;2023-05-21T13:00:15;;;;26.00
70969;BMP280;58630;43.022;25.100;2023-05-21T13:02:47;;;;26.10
70969;BMP280;58630;43.022;25.100;2023-05-21T13:05:16;;;;26.10
70969;BMP280;58630;43.022;25.100;2023-05-21T13:07:41;;;;26.20
70969;BMP280;58630;43.022;25.100;2023-05-21T13:10:11;;;;26.20
70969;BMP280;58630;43.022;25.100;2023-05-21T13:12:37;;;;26.30
70969;BMP280;58630;43.022;25.100;2023-05-21T16:43:01;;;;26.30
70969;BMP280;58630;43.022;25.100;2023-05-21T16:45:27;;;;26.30
70969;BMP280;58630;43.022;25.100;2023-05-21T16:47:57;;;;26.30
70969;BMP280;58630;43.022;25.100;2023-05-21T16:50:22;;;;26.30
70969;BMP280;58630;43.022;25.100;2023-05-21T16:52:48;;;;26.30
70969;BMP280;58630;43.022;25.100;2023-05-21T16:55:13;;;;26.20
70969;BMP280;58630;43.022;25.100;2023-05-21T16:57:39;;;;26.20
70969;BMP280;58630;43.022;25.100;2023-05-21T17:00:05;;;;26.20
70969;BMP280;58630;43.022;25.100;2023-05-21T17:02:32;;;;26.30
70969;BMP280;58630;43.022;25.100;2023-05-21T17:04:57;;;;26.40
70969;BMP280;58630;43.022;25.100;2023-05-21T17:07:24;;;;26.40
70969;BMP280;58630;43.022;25.100;2023-05-21T17:09:50;;;;26.40
70969;BMP280;58630;43.022;25.100;2023-05-21T17:12:15;;;;26.50
70969;BMP280;58630;43.022;25.100;2023-05-21T17:14:41;;;;26.50
70969;BMP280;58630;43.022;25.100;2023-05-21T17:17:06;;;;26.50
70969;BMP280;58630;43.022;25.100;2023-05-21T17:19:32;;;;26.50
70969;BMP280;58630;43.022;25.100;2023-05-21T17:21:57;;;;26.50
70969;BMP280;58630;43.022;25.100;2023-05-21T17:24:23;;;;26.50
70969;BMP280;58630;43.022;25.100;2023-05-21T17:26:48;;;;26.50
70969;BMP280;58630;43.022;25.100;2023-05-21T17:29:14;;;;26.50
70969;BMP280;58630;43.022;25.100;2023-05-21T17:31:39;;;;26.50
70969;BMP280;58630;43.022;25.100;2023-05-21T17:34:05;;;;26.50
70969;BMP280;58630;43.022;25.100;2023-05-21T17:36:30;;;;26.40
70969;BMP280;58630;43.022;25.100;2023-05-21T17:38:56;;;;26.40
70969;BMP280;58630;43.022;25.100;2023-05-21T17:41:22;;;;26.40
70969;BMP280;58630;43.022;25.100;2023-05-21T17:43:49;;;;26.40
70969;BMP280;58630;43.022;25.100;2023-05-21T17:46:15;;;;26.40
70969;BMP280;58630;43.022;25.100;2023-05-21T17:48:44;;;;26.30
70969;BMP280;58630;43.022;25.100;2023-05-21T17:51:10;;;;26.30
70969;BMP280;58630;43.022;25.100;2023-05-21T17:53:36;;;;26.30
70969;BMP280;58630;43.022;25.100;2023-05-21T17:56:02;;;;26.30
70969;BMP280;58630;43.022;25.100;2023-05-21T17:58:27;;;;26.30
70969;BMP280;58630;43.022;25.100;2023-05-21T18:00:53;;;;26.30
70969;BMP280;58630;43.022;25.100;2023-05-21T18:03:18;;;;26.20
70969;BMP280;58630;43.022;25.100;2023-05-21T18:05:44;;;;26.20
70969;BMP280;58630;43.022;25.100;2023-05-21T18:08:09;;;;26.20
70969;BMP280;58630;43.022;25.100;2023-05-21T18:10:35;;;;26.20
70969;BMP280;58630;43.022;25.100;2023-05-21T18:13:01;;;;26.20
70969;BMP280;58630;43.022;25.100;2023-05-21T18:15:26;;;;26.10
70969;BMP280;58630;43.022;25.100;2023-05-21T18:17:52;;;;26.10
70969;BMP280;58630;43.022;25.100;2023-05-21T18:20:17;;;;26.10
70969;BMP280;58630;43.022;25.100;2023-05-21T18:22:43;;;;26.10
70969;BMP280;58630;43.022;25.100;2023-05-21T18:25:09;;;;26.00
70969;BMP280;58630;43.022;25.100;2023-05-21T18:27:35;;;;26.00
70969;BMP280;58630;43.022;25.100;2023-05-21T18:30:00;;;;26.00
70969;BMP280;58630;43.022;25.100;2023-05-21T18:32:31;;;;26.00
70969;BMP280;58630;43.022;25.100;2023-05-21T18:34:57;;;;25.90
70969;BMP280;58630;43.022;25.100;2023-05-21T18:37:22;;;;25.90
70969;BMP280;58630;43.022;25.100;2023-05-21T18:39:48;;;;25.90
70969;BMP280;58630;43.022;25.100;2023-05-21T18:42:13;;;;25.90
70969;BMP280;58630;43.022;25.100;2023-05-21T18:44:39;;;;25.90
70969;BMP280;58630;43.022;25.100;2023-05-21T18:47:04;;;;25.90
70969;BMP280;58630;43.022;25.100;2023-05-21T18:49:31;;;;25.90
70969;BMP280;58630;43.022;25.100;2023-05-21T18:51:59;;;;25.80
70969;BMP280;58630;43.022;25.100;2023-05-21T18:54:25;;;;25.90
70969;BMP280;58630;43.022;25.100;2023-05-21T18:56:50;;;;25.80
70969;BMP280;58630;43.022;25.100;2023-05-21T18:59:16;;;;25.80
70969;BMP280;58630;43.022;25.100;2023-05-21T19:01:41;;;;25.80
70969;BMP280;58630;43.022;25.100;2023-05-21T19:04:07;;;;25.70
70969;BMP280;58630;43.022;25.100;2023-05-21T19:06:32;;;;25.70
70969;BMP280;58630;43.022;25.100;2023-05-21T19:08:58;;;;25.70
70969;BMP280;58630;43.022;25.100;2023-05-21T19:11:23;;;;25.70
70969;BMP280;58630;43.022;25.100;2023-05-21T19:13:55;;;;25.60
70969;BMP280;58630;43.022;25.100;2023-05-21T19:16:20;;;;25.60
70969;BMP280;58630;43.022;25.100;2023-05-21T19:18:46;;;;25.60
70969;BMP280;58630;43.022;25.100;2023-05-21T19:21:11;;;;25.60
70969;BMP280;58630;43.022;25.100;2023-05-21T19:23:37;;;;25.50
70969;BMP280;58630;43.022;25.100;2023-05-21T19:26:02;;;;25.50
70969;BMP280;58630;43.022;25.100;2023-05-21T19:28:28;;;;25.40
70969;BMP280;58630;43.022;25.100;2023-05-21T19:30:54;;;;25.50
70969;BMP280;58630;43.022;25.100;2023-05-21T19:33:19;;;;25.40
70969;BMP280;58630;43.022;25.100;2023-05-21T19:35:45;;;;25.40